Butte, Montana
Current Conditions -  °F | °C
As of 8:53 PM on Saturday 25 Oct 2014 (Local Time) from KBTM Reporting Station
Scattered Clouds Scattered Clouds  
Wind Chill: 52°   Ceiling: Unl
Heat Index: 52°   Visibility: 10mi
Dew Point: 32°   Wind: 7mph
Humidity: 47%   Direction: 190°S
Pressure: 29.76"   Gusts: NA
Location:  45.95°N, 112.5°W
Report Text: KBTM 260253Z AUTO 19006KT 10SM SCT110 11/00 A2976 RMK AO2 SLP074 T01110000 56008
Loading
Personal Weather Stations






























Interactive Weather Map New forecast layout! Learn more

10-Day Weather Forecast

Advertisements
Track Severe Weather on mobile